sensor_id;sensor_type;location;lat;lon;timestamp;temperature;humidity
6142;DHT22;71289;51.552;6.210;2023-07-31T00:00:13;16.70;99.90
6142;DHT22;71289;51.552;6.210;2023-07-31T00:02:39;16.70;99.90
6142;DHT22;71289;51.552;6.210;2023-07-31T00:05:05;16.70;99.90
6142;DHT22;71289;51.552;6.210;2023-07-31T00:07:31;16.70;99.90
6142;DHT22;71289;51.552;6.210;2023-07-31T00:09:57;16.60;99.90
6142;DHT22;71289;51.552;6.210;2023-07-31T00:12:23;16.70;99.90
6142;DHT22;71289;51.552;6.210;2023-07-31T00:14:49;16.70;99.90
6142;DHT22;71289;51.552;6.210;2023-07-31T00:17:17;16.70;99.90
6142;DHT22;71289;51.552;6.210;2023-07-31T00:19:42;16.70;99.90
6142;DHT22;71289;51.552;6.210;2023-07-31T00:22:08;16.70;99.90
6142;DHT22;71289;51.552;6.210;2023-07-31T00:24:33;16.70;99.90
6142;DHT22;71289;51.552;6.210;2023-07-31T00:26:59;16.70;99.90
6142;DHT22;71289;51.552;6.210;2023-07-31T00:29:24;16.70;99.90
6142;DHT22;71289;51.552;6.210;2023-07-31T00:31:50;16.70;99.90
6142;DHT22;71289;51.552;6.210;2023-07-31T00:34:15;16.60;99.90
6142;DHT22;71289;51.552;6.210;2023-07-31T00:36:41;16.70;99.90
6142;DHT22;71289;51.552;6.210;2023-07-31T00:39:06;16.70;99.90
6142;DHT22;71289;51.552;6.210;2023-07-31T00:41:32;16.60;99.90
6142;DHT22;71289;51.552;6.210;2023-07-31T00:43:57;16.60;99.90
6142;DHT22;71289;51.552;6.210;2023-07-31T00:46:23;16.60;99.90
6142;DHT22;71289;51.552;6.210;2023-07-31T00:48:49;16.60;99.90
6142;DHT22;71289;51.552;6.210;2023-07-31T00:51:14;16.60;99.90
6142;DHT22;71289;51.552;6.210;2023-07-31T00:53:41;16.60;99.90
6142;DHT22;71289;51.552;6.210;2023-07-31T00:56:06;16.60;99.90
6142;DHT22;71289;51.552;6.210;2023-07-31T00:58:32;16.70;99.90
6142;DHT22;71289;51.552;6.210;2023-07-31T01:00:58;16.60;99.90
6142;DHT22;71289;51.552;6.210;2023-07-31T01:03:24;16.60;99.90
6142;DHT22;71289;51.552;6.210;2023-07-31T01:06:37;16.70;99.90
6142;DHT22;71289;51.552;6.210;2023-07-31T01:11:25;16.60;99.90
6142;DHT22;71289;51.552;6.210;2023-07-31T01:13:53;16.60;99.90
6142;DHT22;71289;51.552;6.210;2023-07-31T01:16:19;16.60;99.90
6142;DHT22;71289;51.552;6.210;2023-07-31T01:18:45;16.60;99.90
6142;DHT22;71289;51.552;6.210;2023-07-31T01:27:09;16.60;99.90
6142;DHT22;71289;51.552;6.210;2023-07-31T01:29:43;16.60;99.90
6142;DHT22;71289;51.552;6.210;2023-07-31T01:32:11;16.60;99.90
6142;DHT22;71289;51.552;6.210;2023-07-31T01:34:37;16.60;99.90
6142;DHT22;71289;51.552;6.210;2023-07-31T01:37:03;16.90;99.90
6142;DHT22;71289;51.552;6.210;2023-07-31T01:39:29;16.60;99.90
6142;DHT22;71289;51.552;6.210;2023-07-31T01:41:54;16.60;99.90
6142;DHT22;71289;51.552;6.210;2023-07-31T01:44:20;16.60;99.90
6142;DHT22;71289;51.552;6.210;2023-07-31T01:46:45;16.60;99.90
6142;DHT22;71289;51.552;6.210;2023-07-31T01:49:11;16.50;99.90
6142;DHT22;71289;51.552;6.210;2023-07-31T01:51:36;16.50;99.90
6142;DHT22;71289;51.552;6.210;2023-07-31T01:54:02;16.70;99.90
6142;DHT22;71289;51.552;6.210;2023-07-31T01:56:28;16.50;99.90
6142;DHT22;71289;51.552;6.210;2023-07-31T01:58:53;16.50;99.90
6142;DHT22;71289;51.552;6.210;2023-07-31T02:01:19;16.40;99.90
6142;DHT22;71289;51.552;6.210;2023-07-31T02:03:45;16.40;99.90
6142;DHT22;71289;51.552;6.210;2023-07-31T02:06:10;16.40;99.90
6142;DHT22;71289;51.552;6.210;2023-07-31T02:08:36;16.40;99.90
6142;DHT22;71289;51.552;6.210;2023-07-31T02:11:01;16.40;99.90
6142;DHT22;71289;51.552;6.210;2023-07-31T02:13:27;16.50;99.90
6142;DHT22;71289;51.552;6.210;2023-07-31T02:15:52;16.50;99.90
6142;DHT22;71289;51.552;6.210;2023-07-31T02:18:19;16.40;99.90
6142;DHT22;71289;51.552;6.210;2023-07-31T02:20:52;16.40;99.90
6142;DHT22;71289;51.552;6.210;2023-07-31T02:23:18;16.40;99.90
6142;DHT22;71289;51.552;6.210;2023-07-31T02:25:45;16.40;99.90
6142;DHT22;71289;51.552;6.210;2023-07-31T02:28:10;16.40;99.90
6142;DHT22;71289;51.552;6.210;2023-07-31T02:30:36;16.30;99.90
6142;DHT22;71289;51.552;6.210;2023-07-31T02:33:02;16.30;99.90
6142;DHT22;71289;51.552;6.210;2023-07-31T02:35:27;16.30;99.90
6142;DHT22;71289;51.552;6.210;2023-07-31T02:37:53;16.30;99.90
6142;DHT22;71289;51.552;6.210;2023-07-31T02:40:19;16.50;99.90
6142;DHT22;71289;51.552;6.210;2023-07-31T02:42:44;16.30;99.90
6142;DHT22;71289;51.552;6.210;2023-07-31T02:45:10;16.10;99.90
6142;DHT22;71289;51.552;6.210;2023-07-31T02:47:35;16.20;99.90
6142;DHT22;71289;51.552;6.210;2023-07-31T02:50:02;16.20;99.90
6142;DHT22;71289;51.552;6.210;2023-07-31T02:52:28;16.20;99.90
6142;DHT22;71289;51.552;6.210;2023-07-31T02:54:53;16.20;99.90
6142;DHT22;71289;51.552;6.210;2023-07-31T02:57:19;16.20;99.90
6142;DHT22;71289;51.552;6.210;2023-07-31T02:59:44;16.20;99.90
6142;DHT22;71289;51.552;6.210;2023-07-31T03:02:10;16.20;99.90
6142;DHT22;71289;51.552;6.210;2023-07-31T03:04:36;16.20;99.90
6142;DHT22;71289;51.552;6.210;2023-07-31T03:07:02;16.20;99.90
6142;DHT22;71289;51.552;6.210;2023-07-31T03:09:27;16.20;99.90
6142;DHT22;71289;51.552;6.210;2023-07-31T03:11:53;16.20;99.90
6142;DHT22;71289;51.552;6.210;2023-07-31T03:14:18;16.20;99.90
6142;DHT22;71289;51.552;6.210;2023-07-31T03:16:44;16.30;99.90
6142;DHT22;71289;51.552;6.210;2023-07-31T03:19:09;16.50;99.90
6142;DHT22;71289;51.552;6.210;2023-07-31T03:21:35;16.30;99.90
6142;DHT22;71289;51.552;6.210;2023-07-31T03:24:00;16.30;99.90
6142;DHT22;71289;51.552;6.210;2023-07-31T03:26:26;16.30;99.90
6142;DHT22;71289;51.552;6.210;2023-07-31T03:28:51;16.30;99.90
6142;DHT22;71289;51.552;6.210;2023-07-31T03:31:17;16.30;99.90
6142;DHT22;71289;51.552;6.210;2023-07-31T03:33:42;16.30;99.90
6142;DHT22;71289;51.552;6.210;2023-07-31T03:36:08;16.30;99.90
6142;DHT22;71289;51.552;6.210;2023-07-31T03:38:34;16.30;99.90
6142;DHT22;71289;51.552;6.210;2023-07-31T03:41:00;16.30;99.90
6142;DHT22;71289;51.552;6.210;2023-07-31T03:43:25;16.30;99.90
6142;DHT22;71289;51.552;6.210;2023-07-31T03:45:51;16.40;99.90
6142;DHT22;71289;51.552;6.210;2023-07-31T03:48:17;16.40;99.90
6142;DHT22;71289;51.552;6.210;2023-07-31T03:50:42;16.40;99.90
6142;DHT22;71289;51.552;6.210;2023-07-31T03:53:08;16.40;99.90
6142;DHT22;71289;51.552;6.210;2023-07-31T03:55:33;16.50;99.90
6142;DHT22;71289;51.552;6.210;2023-07-31T03:57:59;16.50;99.90
6142;DHT22;71289;51.552;6.210;2023-07-31T04:00:26;16.50;99.90
6142;DHT22;71289;51.552;6.210;2023-07-31T04:02:52;16.50;99.90
6142;DHT22;71289;51.552;6.210;2023-07-31T04:05:18;16.50;99.90
6142;DHT22;71289;51.552;6.210;2023-07-31T04:07:43;16.50;99.90
6142;DHT22;71289;51.552;6.210;2023-07-31T04:10:09;16.50;99.90
6142;DHT22;71289;51.552;6.210;2023-07-31T04:12:34;16.50;99.90
6142;DHT22;71289;51.552;6.210;2023-07-31T04:15:00;16.50;99.90
6142;DHT22;71289;51.552;6.210;2023-07-31T04:17:25;16.50;99.90
6142;DHT22;71289;51.552;6.210;2023-07-31T04:19:51;16.50;99.90
6142;DHT22;71289;51.552;6.210;2023-07-31T04:22:17;16.50;99.90
6142;DHT22;71289;51.552;6.210;2023-07-31T04:24:42;16.50;99.90
6142;DHT22;71289;51.552;6.210;2023-07-31T04:27:08;16.60;99.90
6142;DHT22;71289;51.552;6.210;2023-07-31T04:29:33;16.60;99.90
6142;DHT22;71289;51.552;6.210;2023-07-31T04:31:59;16.60;99.90
6142;DHT22;71289;51.552;6.210;2023-07-31T04:34:24;16.60;99.90
6142;DHT22;71289;51.552;6.210;2023-07-31T04:36:50;16.70;99.90
6142;DHT22;71289;51.552;6.210;2023-07-31T04:39:15;16.60;99.90
6142;DHT22;71289;51.552;6.210;2023-07-31T04:41:41;16.60;99.90
6142;DHT22;71289;51.552;6.210;2023-07-31T04:44:06;16.60;99.90
6142;DHT22;71289;51.552;6.210;2023-07-31T04:46:32;16.80;99.90
6142;DHT22;71289;51.552;6.210;2023-07-31T04:48:58;16.70;99.90
6142;DHT22;71289;51.552;6.210;2023-07-31T04:51:23;16.70;99.90
6142;DHT22;71289;51.552;6.210;2023-07-31T04:53:49;16.70;99.90
6142;DHT22;71289;51.552;6.210;2023-07-31T04:56:15;17.00;99.90
6142;DHT22;71289;51.552;6.210;2023-07-31T04:58:40;16.80;99.90
6142;DHT22;71289;51.552;6.210;2023-07-31T05:01:06;17.20;99.90
6142;DHT22;71289;51.552;6.210;2023-07-31T05:03:31;16.80;99.90
6142;DHT22;71289;51.552;6.210;2023-07-31T05:05:57;16.80;99.90
6142;DHT22;71289;51.552;6.210;2023-07-31T05:08:23;16.90;99.90
6142;DHT22;71289;51.552;6.210;2023-07-31T05:10:48;16.70;99.90
6142;DHT22;71289;51.552;6.210;2023-07-31T05:13:14;16.90;99.90
6142;DHT22;71289;51.552;6.210;2023-07-31T05:15:41;16.90;99.90
6142;DHT22;71289;51.552;6.210;2023-07-31T05:18:06;17.00;99.90
6142;DHT22;71289;51.552;6.210;2023-07-31T05:20:32;17.10;99.90
6142;DHT22;71289;51.552;6.210;2023-07-31T05:22:57;17.00;99.90
6142;DHT22;71289;51.552;6.210;2023-07-31T05:25:23;17.00;99.90
6142;DHT22;71289;51.552;6.210;2023-07-31T05:27:48;17.00;99.90
6142;DHT22;71289;51.552;6.210;2023-07-31T05:30:14;17.20;99.90
6142;DHT22;71289;51.552;6.210;2023-07-31T05:32:39;17.00;99.90
6142;DHT22;71289;51.552;6.210;2023-07-31T05:35:05;17.00;99.90
6142;DHT22;71289;51.552;6.210;2023-07-31T05:37:31;17.00;99.90
6142;DHT22;71289;51.552;6.210;2023-07-31T05:39:56;17.00;99.90
6142;DHT22;71289;51.552;6.210;2023-07-31T05:42:22;17.10;99.90
6142;DHT22;71289;51.552;6.210;2023-07-31T05:44:47;17.10;99.90
6142;DHT22;71289;51.552;6.210;2023-07-31T05:47:13;17.10;99.90
6142;DHT22;71289;51.552;6.210;2023-07-31T05:49:38;17.10;99.90
6142;DHT22;71289;51.552;6.210;2023-07-31T05:52:04;17.20;99.90
6142;DHT22;71289;51.552;6.210;2023-07-31T05:54:31;17.10;99.90
6142;DHT22;71289;51.552;6.210;2023-07-31T05:56:57;17.00;99.90
6142;DHT22;71289;51.552;6.210;2023-07-31T05:59:23;16.90;99.90
6142;DHT22;71289;51.552;6.210;2023-07-31T06:01:48;17.10;99.90
6142;DHT22;71289;51.552;6.210;2023-07-31T06:04:14;17.00;99.90
6142;DHT22;71289;51.552;6.210;2023-07-31T06:06:39;17.00;99.90
6142;DHT22;71289;51.552;6.210;2023-07-31T06:09:05;16.90;99.90
6142;DHT22;71289;51.552;6.210;2023-07-31T06:11:31;17.00;99.90
6142;DHT22;71289;51.552;6.210;2023-07-31T06:13:56;17.00;99.90
6142;DHT22;71289;51.552;6.210;2023-07-31T06:16:22;17.00;99.90
6142;DHT22;71289;51.552;6.210;2023-07-31T06:18:48;16.90;99.90
6142;DHT22;71289;51.552;6.210;2023-07-31T06:21:13;17.00;99.90
6142;DHT22;71289;51.552;6.210;2023-07-31T06:23:39;16.90;99.90
6142;DHT22;71289;51.552;6.210;2023-07-31T06:26:04;17.00;99.90
6142;DHT22;71289;51.552;6.210;2023-07-31T06:28:31;16.90;99.90
6142;DHT22;71289;51.552;6.210;2023-07-31T06:30:57;17.00;99.90
6142;DHT22;71289;51.552;6.210;2023-07-31T06:33:24;17.00;99.90
6142;DHT22;71289;51.552;6.210;2023-07-31T06:35:49;16.90;99.90
6142;DHT22;71289;51.552;6.210;2023-07-31T06:38:15;16.90;99.90
6142;DHT22;71289;51.552;6.210;2023-07-31T06:40:40;16.90;99.90
6142;DHT22;71289;51.552;6.210;2023-07-31T06:43:06;17.00;99.90
6142;DHT22;71289;51.552;6.210;2023-07-31T06:45:36;16.90;99.90
6142;DHT22;71289;51.552;6.210;2023-07-31T06:48:03;16.80;99.90
6142;DHT22;71289;51.552;6.210;2023-07-31T06:50:30;16.90;99.90
6142;DHT22;71289;51.552;6.210;2023-07-31T06:52:55;16.70;99.90
6142;DHT22;71289;51.552;6.210;2023-07-31T06:55:21;16.80;99.90
6142;DHT22;71289;51.552;6.210;2023-07-31T06:57:48;16.80;99.90
6142;DHT22;71289;51.552;6.210;2023-07-31T07:00:15;16.80;99.90
6142;DHT22;71289;51.552;6.210;2023-07-31T07:02:40;16.80;99.90
6142;DHT22;71289;51.552;6.210;2023-07-31T07:05:07;16.80;99.90
6142;DHT22;71289;51.552;6.210;2023-07-31T07:07:33;16.80;99.90
6142;DHT22;71289;51.552;6.210;2023-07-31T07:09:58;16.80;99.90
6142;DHT22;71289;51.552;6.210;2023-07-31T07:12:30;16.70;99.90
6142;DHT22;71289;51.552;6.210;2023-07-31T07:14:56;16.70;99.90
6142;DHT22;71289;51.552;6.210;2023-07-31T07:17:23;16.80;99.90
6142;DHT22;71289;51.552;6.210;2023-07-31T07:19:48;16.80;99.90
6142;DHT22;71289;51.552;6.210;2023-07-31T07:22:14;16.70;99.90
6142;DHT22;71289;51.552;6.210;2023-07-31T07:24:40;16.80;99.90
6142;DHT22;71289;51.552;6.210;2023-07-31T07:27:06;16.80;99.90
6142;DHT22;71289;51.552;6.210;2023-07-31T07:29:31;16.80;99.90
6142;DHT22;71289;51.552;6.210;2023-07-31T07:31:57;16.70;99.90
6142;DHT22;71289;51.552;6.210;2023-07-31T07:34:25;16.80;99.90
6142;DHT22;71289;51.552;6.210;2023-07-31T07:36:50;16.70;99.90
6142;DHT22;71289;51.552;6.210;2023-07-31T07:39:16;16.80;99.90
6142;DHT22;71289;51.552;6.210;2023-07-31T07:41:41;16.80;99.90
6142;DHT22;71289;51.552;6.210;2023-07-31T07:44:08;16.70;99.90
6142;DHT22;71289;51.552;6.210;2023-07-31T07:46:34;16.80;99.90
6142;DHT22;71289;51.552;6.210;2023-07-31T07:48:59;16.90;99.90
6142;DHT22;71289;51.552;6.210;2023-07-31T07:51:25;16.90;99.90
6142;DHT22;71289;51.552;6.210;2023-07-31T07:53:50;16.90;99.90
6142;DHT22;71289;51.552;6.210;2023-07-31T07:56:16;16.90;99.90
6142;DHT22;71289;51.552;6.210;2023-07-31T07:58:41;16.80;99.90
6142;DHT22;71289;51.552;6.210;2023-07-31T08:01:07;16.90;99.90
6142;DHT22;71289;51.552;6.210;2023-07-31T08:03:32;16.90;99.90
6142;DHT22;71289;51.552;6.210;2023-07-31T08:06:01;16.90;99.90
6142;DHT22;71289;51.552;6.210;2023-07-31T08:08:28;16.90;99.90
6142;DHT22;71289;51.552;6.210;2023-07-31T08:10:53;17.10;99.90
6142;DHT22;71289;51.552;6.210;2023-07-31T08:13:19;17.00;99.90
6142;DHT22;71289;51.552;6.210;2023-07-31T08:15:44;16.70;99.90
6142;DHT22;71289;51.552;6.210;2023-07-31T08:18:11;16.80;99.90
6142;DHT22;71289;51.552;6.210;2023-07-31T08:20:37;16.70;99.90
6142;DHT22;71289;51.552;6.210;2023-07-31T08:23:03;16.70;99.90
6142;DHT22;71289;51.552;6.210;2023-07-31T08:25:29;16.80;99.90
6142;DHT22;71289;51.552;6.210;2023-07-31T08:27:55;16.70;99.90
6142;DHT22;71289;51.552;6.210;2023-07-31T08:30:21;16.70;99.90
6142;DHT22;71289;51.552;6.210;2023-07-31T08:32:47;16.70;99.90
6142;DHT22;71289;51.552;6.210;2023-07-31T08:35:12;16.70;99.90
6142;DHT22;71289;51.552;6.210;2023-07-31T08:37:38;16.80;99.90
6142;DHT22;71289;51.552;6.210;2023-07-31T08:40:04;16.70;99.90
6142;DHT22;71289;51.552;6.210;2023-07-31T08:42:30;16.80;99.90
6142;DHT22;71289;51.552;6.210;2023-07-31T08:44:56;16.70;99.90
6142;DHT22;71289;51.552;6.210;2023-07-31T08:47:23;16.60;99.90
6142;DHT22;71289;51.552;6.210;2023-07-31T08:49:50;16.80;99.90
6142;DHT22;71289;51.552;6.210;2023-07-31T08:52:16;16.80;99.90
6142;DHT22;71289;51.552;6.210;2023-07-31T08:54:42;16.90;99.90
6142;DHT22;71289;51.552;6.210;2023-07-31T08:57:07;16.90;99.90
6142;DHT22;71289;51.552;6.210;2023-07-31T08:59:35;16.90;99.90
6142;DHT22;71289;51.552;6.210;2023-07-31T09:02:05;16.80;99.90
6142;DHT22;71289;51.552;6.210;2023-07-31T09:04:33;16.90;99.90
6142;DHT22;71289;51.552;6.210;2023-07-31T09:07:02;17.20;99.90
6142;DHT22;71289;51.552;6.210;2023-07-31T09:09:31;17.00;99.90
6142;DHT22;71289;51.552;6.210;2023-07-31T09:11:57;17.20;99.90
6142;DHT22;71289;51.552;6.210;2023-07-31T09:14:25;17.00;99.90
6142;DHT22;71289;51.552;6.210;2023-07-31T09:16:56;17.00;99.90
6142;DHT22;71289;51.552;6.210;2023-07-31T09:19:26;17.00;99.90
6142;DHT22;71289;51.552;6.210;2023-07-31T09:21:52;17.30;99.90
6142;DHT22;71289;51.552;6.210;2023-07-31T09:24:36;17.00;99.90
6142;DHT22;71289;51.552;6.210;2023-07-31T09:27:02;17.10;99.90
6142;DHT22;71289;51.552;6.210;2023-07-31T09:29:28;17.10;99.90
6142;DHT22;71289;51.552;6.210;2023-07-31T09:31:55;17.30;99.90
6142;DHT22;71289;51.552;6.210;2023-07-31T09:34:29;17.10;99.90
6142;DHT22;71289;51.552;6.210;2023-07-31T09:36:56;17.00;99.90
6142;DHT22;71289;51.552;6.210;2023-07-31T09:39:22;17.00;99.90
6142;DHT22;71289;51.552;6.210;2023-07-31T09:41:54;17.10;99.90
6142;DHT22;71289;51.552;6.210;2023-07-31T09:44:19;17.10;99.90
6142;DHT22;71289;51.552;6.210;2023-07-31T09:46:45;17.10;99.90
6142;DHT22;71289;51.552;6.210;2023-07-31T09:49:13;17.00;99.90
6142;DHT22;71289;51.552;6.210;2023-07-31T09:51:40;17.00;99.90
6142;DHT22;71289;51.552;6.210;2023-07-31T09:54:14;16.80;99.90
6142;DHT22;71289;51.552;6.210;2023-07-31T09:56:45;17.00;99.90
6142;DHT22;71289;51.552;6.210;2023-07-31T09:59:13;17.10;99.90
6142;DHT22;71289;51.552;6.210;2023-07-31T10:01:41;17.10;99.90
6142;DHT22;71289;51.552;6.210;2023-07-31T10:04:08;17.10;99.90
6142;DHT22;71289;51.552;6.210;2023-07-31T10:06:34;17.20;99.90
6142;DHT22;71289;51.552;6.210;2023-07-31T10:09:02;17.20;99.90
6142;DHT22;71289;51.552;6.210;2023-07-31T10:11:30;17.20;99.90
6142;DHT22;71289;51.552;6.210;2023-07-31T10:13:56;17.30;99.90
6142;DHT22;71289;51.552;6.210;2023-07-31T10:16:22;17.30;99.90
6142;DHT22;71289;51.552;6.210;2023-07-31T10:18:49;17.10;99.90
6142;DHT22;71289;51.552;6.210;2023-07-31T10:21:15;17.40;99.90
6142;DHT22;71289;51.552;6.210;2023-07-31T10:23:41;17.10;99.90
6142;DHT22;71289;51.552;6.210;2023-07-31T10:26:08;17.50;99.90
6142;DHT22;71289;51.552;6.210;2023-07-31T10:28:34;17.50;99.90
6142;DHT22;71289;51.552;6.210;2023-07-31T10:31:02;17.50;99.90
6142;DHT22;71289;51.552;6.210;2023-07-31T10:33:28;17.60;99.90
6142;DHT22;71289;51.552;6.210;2023-07-31T10:36:14;17.60;99.90
6142;DHT22;71289;51.552;6.210;2023-07-31T10:38:40;17.50;99.90
6142;DHT22;71289;51.552;6.210;2023-07-31T10:41:09;17.60;99.90
6142;DHT22;71289;51.552;6.210;2023-07-31T10:43:39;17.60;99.90
6142;DHT22;71289;51.552;6.210;2023-07-31T10:46:08;17.60;99.90
6142;DHT22;71289;51.552;6.210;2023-07-31T10:48:34;17.60;99.90
6142;DHT22;71289;51.552;6.210;2023-07-31T10:51:09;17.60;99.90
6142;DHT22;71289;51.552;6.210;2023-07-31T10:53:36;17.60;99.90
6142;DHT22;71289;51.552;6.210;2023-07-31T10:56:03;17.70;99.90
6142;DHT22;71289;51.552;6.210;2023-07-31T10:58:30;17.70;99.90
6142;DHT22;71289;51.552;6.210;2023-07-31T11:01:03;17.80;99.90
6142;DHT22;71289;51.552;6.210;2023-07-31T11:03:49;17.80;99.90
6142;DHT22;71289;51.552;6.210;2023-07-31T11:06:17;18.00;99.90
6142;DHT22;71289;51.552;6.210;2023-07-31T11:08:50;18.00;99.90
6142;DHT22;71289;51.552;6.210;2023-07-31T11:11:17;18.00;99.90
6142;DHT22;71289;51.552;6.210;2023-07-31T11:13:46;18.00;99.90
6142;DHT22;71289;51.552;6.210;2023-07-31T11:16:14;18.10;99.90
6142;DHT22;71289;51.552;6.210;2023-07-31T11:18:41;18.00;99.90
6142;DHT22;71289;51.552;6.210;2023-07-31T11:21:08;18.00;99.90
6142;DHT22;71289;51.552;6.210;2023-07-31T11:23:36;17.90;99.90
6142;DHT22;71289;51.552;6.210;2023-07-31T11:26:02;18.00;99.90
6142;DHT22;71289;51.552;6.210;2023-07-31T11:28:34;18.00;99.90
6142;DHT22;71289;51.552;6.210;2023-07-31T11:31:01;18.10;99.90
6142;DHT22;71289;51.552;6.210;2023-07-31T11:33:27;18.10;99.90
6142;DHT22;71289;51.552;6.210;2023-07-31T11:35:52;18.00;99.90
6142;DHT22;71289;51.552;6.210;2023-07-31T11:38:22;18.10;99.90
6142;DHT22;71289;51.552;6.210;2023-07-31T11:40:56;18.10;99.90
6142;DHT22;71289;51.552;6.210;2023-07-31T11:43:22;18.00;99.90
6142;DHT22;71289;51.552;6.210;2023-07-31T11:45:49;18.30;99.90
6142;DHT22;71289;51.552;6.210;2023-07-31T11:48:23;18.10;99.90
6142;DHT22;71289;51.552;6.210;2023-07-31T11:50:50;18.10;99.90
6142;DHT22;71289;51.552;6.210;2023-07-31T11:53:18;18.10;99.90
6142;DHT22;71289;51.552;6.210;2023-07-31T11:55:45;18.30;99.90
6142;DHT22;71289;51.552;6.210;2023-07-31T11:58:12;18.20;99.90
6142;DHT22;71289;51.552;6.210;2023-07-31T12:00:39;18.20;99.90
6142;DHT22;71289;51.552;6.210;2023-07-31T12:03:04;18.20;99.90
6142;DHT22;71289;51.552;6.210;2023-07-31T12:05:30;18.30;99.90
6142;DHT22;71289;51.552;6.210;2023-07-31T12:07:56;18.30;99.90
6142;DHT22;71289;51.552;6.210;2023-07-31T12:10:28;18.40;99.90
6142;DHT22;71289;51.552;6.210;2023-07-31T12:13:01;18.40;99.90
6142;DHT22;71289;51.552;6.210;2023-07-31T12:15:36;18.50;99.90
6142;DHT22;71289;51.552;6.210;2023-07-31T12:18:07;18.60;99.90
6142;DHT22;71289;51.552;6.210;2023-07-31T12:20:33;18.60;99.90
6142;DHT22;71289;51.552;6.210;2023-07-31T12:22:59;18.60;99.90
6142;DHT22;71289;51.552;6.210;2023-07-31T12:25:32;18.60;99.90
6142;DHT22;71289;51.552;6.210;2023-07-31T12:28:03;18.50;99.90
6142;DHT22;71289;51.552;6.210;2023-07-31T12:30:33;18.50;99.90
6142;DHT22;71289;51.552;6.210;2023-07-31T12:33:07;18.60;99.90
6142;DHT22;71289;51.552;6.210;2023-07-31T12:35:37;18.50;99.90
6142;DHT22;71289;51.552;6.210;2023-07-31T12:38:03;18.40;99.90
6142;DHT22;71289;51.552;6.210;2023-07-31T12:40:29;18.30;99.90
6142;DHT22;71289;51.552;6.210;2023-07-31T12:42:54;18.50;99.90
6142;DHT22;71289;51.552;6.210;2023-07-31T12:45:20;18.70;99.90
6142;DHT22;71289;51.552;6.210;2023-07-31T12:47:46;18.60;99.90
6142;DHT22;71289;51.552;6.210;2023-07-31T12:50:12;18.60;99.90
6142;DHT22;71289;51.552;6.210;2023-07-31T12:52:38;18.60;99.90
6142;DHT22;71289;51.552;6.210;2023-07-31T12:55:04;18.60;99.90
6142;DHT22;71289;51.552;6.210;2023-07-31T12:57:30;18.60;99.90
6142;DHT22;71289;51.552;6.210;2023-07-31T12:59:55;18.60;99.90
6142;DHT22;71289;51.552;6.210;2023-07-31T13:02:21;18.60;99.90
6142;DHT22;71289;51.552;6.210;2023-07-31T13:04:47;18.40;99.90
6142;DHT22;71289;51.552;6.210;2023-07-31T13:07:12;18.60;99.90
6142;DHT22;71289;51.552;6.210;2023-07-31T13:09:38;18.70;99.90
6142;DHT22;71289;51.552;6.210;2023-07-31T13:12:03;18.60;99.90
6142;DHT22;71289;51.552;6.210;2023-07-31T13:14:29;18.50;99.90
6142;DHT22;71289;51.552;6.210;2023-07-31T13:16:54;18.60;99.90
6142;DHT22;71289;51.552;6.210;2023-07-31T13:19:20;18.60;99.90
6142;DHT22;71289;51.552;6.210;2023-07-31T13:21:45;18.60;99.90
6142;DHT22;71289;51.552;6.210;2023-07-31T13:24:11;18.70;99.90
6142;DHT22;71289;51.552;6.210;2023-07-31T13:26:37;18.70;99.90
6142;DHT22;71289;51.552;6.210;2023-07-31T13:29:02;18.70;99.90
6142;DHT22;71289;51.552;6.210;2023-07-31T13:31:28;18.70;99.90
6142;DHT22;71289;51.552;6.210;2023-07-31T13:33:53;18.70;99.90
6142;DHT22;71289;51.552;6.210;2023-07-31T13:36:19;18.80;99.90
6142;DHT22;71289;51.552;6.210;2023-07-31T13:38:44;19.00;99.90
6142;DHT22;71289;51.552;6.210;2023-07-31T13:41:10;18.70;99.90
6142;DHT22;71289;51.552;6.210;2023-07-31T13:43:35;18.50;99.90
6142;DHT22;71289;51.552;6.210;2023-07-31T13:46:01;19.20;99.90
6142;DHT22;71289;51.552;6.210;2023-07-31T13:48:34;18.90;99.90
6142;DHT22;71289;51.552;6.210;2023-07-31T13:51:00;18.90;99.90
6142;DHT22;71289;51.552;6.210;2023-07-31T13:53:26;18.90;99.90
6142;DHT22;71289;51.552;6.210;2023-07-31T13:55:51;18.90;99.90
6142;DHT22;71289;51.552;6.210;2023-07-31T13:58:17;18.90;99.90
6142;DHT22;71289;51.552;6.210;2023-07-31T14:00:43;18.90;99.90
6142;DHT22;71289;51.552;6.210;2023-07-31T14:03:08;18.90;99.90
6142;DHT22;71289;51.552;6.210;2023-07-31T14:05:34;19.00;99.90
6142;DHT22;71289;51.552;6.210;2023-07-31T14:08:00;19.00;99.90
6142;DHT22;71289;51.552;6.210;2023-07-31T14:10:25;19.00;99.90
6142;DHT22;71289;51.552;6.210;2023-07-31T14:12:51;18.90;99.90
6142;DHT22;71289;51.552;6.210;2023-07-31T14:15:16;19.20;99.90
6142;DHT22;71289;51.552;6.210;2023-07-31T14:17:42;19.10;99.90
6142;DHT22;71289;51.552;6.210;2023-07-31T14:20:08;19.10;99.90
6142;DHT22;71289;51.552;6.210;2023-07-31T14:22:34;19.10;99.90
6142;DHT22;71289;51.552;6.210;2023-07-31T14:25:00;19.30;99.90
6142;DHT22;71289;51.552;6.210;2023-07-31T14:27:25;19.10;99.90
6142;DHT22;71289;51.552;6.210;2023-07-31T14:29:51;19.10;99.90
6142;DHT22;71289;51.552;6.210;2023-07-31T14:32:17;19.00;99.90
6142;DHT22;71289;51.552;6.210;2023-07-31T14:34:42;19.10;99.90
6142;DHT22;71289;51.552;6.210;2023-07-31T14:37:08;19.10;99.90
6142;DHT22;71289;51.552;6.210;2023-07-31T14:39:33;19.10;99.90
6142;DHT22;71289;51.552;6.210;2023-07-31T14:41:59;19.00;99.90
6142;DHT22;71289;51.552;6.210;2023-07-31T14:44:24;19.00;99.90
6142;DHT22;71289;51.552;6.210;2023-07-31T14:46:50;18.90;99.90
6142;DHT22;71289;51.552;6.210;2023-07-31T14:49:15;18.90;99.90
6142;DHT22;71289;51.552;6.210;2023-07-31T14:51:41;18.90;99.90
6142;DHT22;71289;51.552;6.210;2023-07-31T14:54:06;19.10;99.90
6142;DHT22;71289;51.552;6.210;2023-07-31T14:56:32;18.80;99.90
6142;DHT22;71289;51.552;6.210;2023-07-31T14:58:57;18.70;99.90
6142;DHT22;71289;51.552;6.210;2023-07-31T15:01:23;18.70;99.90
6142;DHT22;71289;51.552;6.210;2023-07-31T15:03:49;18.70;99.90
6142;DHT22;71289;51.552;6.210;2023-07-31T15:06:14;18.70;99.90
6142;DHT22;71289;51.552;6.210;2023-07-31T15:08:40;18.70;99.90
6142;DHT22;71289;51.552;6.210;2023-07-31T15:11:07;18.60;99.90
6142;DHT22;71289;51.552;6.210;2023-07-31T15:13:33;18.50;99.90
6142;DHT22;71289;51.552;6.210;2023-07-31T15:15:59;18.80;99.90
6142;DHT22;71289;51.552;6.210;2023-07-31T15:18:24;18.40;99.90
6142;DHT22;71289;51.552;6.210;2023-07-31T15:20:50;18.60;99.90
6142;DHT22;71289;51.552;6.210;2023-07-31T15:23:15;18.40;99.90
6142;DHT22;71289;51.552;6.210;2023-07-31T15:25:41;18.40;99.90
6142;DHT22;71289;51.552;6.210;2023-07-31T15:28:07;18.40;99.90
6142;DHT22;71289;51.552;6.210;2023-07-31T15:30:35;18.40;99.90
6142;DHT22;71289;51.552;6.210;2023-07-31T15:33:01;18.40;99.90
6142;DHT22;71289;51.552;6.210;2023-07-31T15:35:27;18.30;99.90
6142;DHT22;71289;51.552;6.210;2023-07-31T15:37:52;18.30;99.90
6142;DHT22;71289;51.552;6.210;2023-07-31T15:40:18;18.30;99.90
6142;DHT22;71289;51.552;6.210;2023-07-31T15:42:44;18.20;99.90
6142;DHT22;71289;51.552;6.210;2023-07-31T15:45:09;18.20;99.90
6142;DHT22;71289;51.552;6.210;2023-07-31T15:47:36;18.20;99.90